Garnerville, New York
Current Conditions -  °F | °C
As of 12:56 AM on Monday 22 Dec 2014 (Local Time) from KHPN Reporting Station
Overcast Overcast  
Wind Chill: 28°   Ceiling: 1200
Heat Index: 33°   Visibility: 9mi
Dew Point: 30°   Wind: 6mph
Humidity: 89%   Direction: 10°N
Pressure: 30.3"   Gusts: NA
Location:  41.2°N, 73.99°W
Report Text: KHPN 220556Z 01005KT 9SM BKN012 OVC020 01/M01 A3030 RMK AO2 SLP267 T00061011 10006 20000 58004
Loading
Personal Weather Stations






























Interactive Weather Map New forecast layout! Learn more

10-Day Weather Forecast

Advertisements
Track Severe Weather on mobile